createdAt,value
2023-05-25T00:01:49.629Z,6.22
2023-05-25T00:04:19.811Z,6.65
2023-05-25T00:06:47.883Z,6.70
2023-05-25T00:09:15.783Z,6.55
2023-05-25T00:11:43.527Z,6.60
2023-05-25T00:14:10.908Z,6.10
2023-05-25T00:16:41.073Z,6.78
2023-05-25T00:19:10.931Z,6.50
2023-05-25T00:21:41.663Z,6.05
2023-05-25T00:24:09.251Z,6.28
2023-05-25T00:26:36.690Z,7.00
2023-05-25T00:29:04.935Z,6.32
2023-05-25T00:31:33.764Z,6.20
2023-05-25T00:34:01.414Z,6.38
2023-05-25T00:36:29.323Z,6.50
2023-05-25T00:38:56.696Z,6.18
2023-05-25T00:41:25.457Z,6.45
2023-05-25T00:43:57.554Z,6.32
2023-05-25T00:46:25.956Z,6.38
2023-05-25T00:48:55.274Z,6.38
2023-05-25T00:51:23.005Z,6.53
2023-05-25T00:53:51.119Z,6.43
2023-05-25T00:56:25.142Z,7.10
2023-05-25T00:58:55.999Z,7.37
2023-05-25T01:01:24.599Z,7.65
2023-05-25T01:03:56.238Z,7.90
2023-05-25T01:06:24.290Z,7.55
2023-05-25T01:08:54.723Z,7.40
2023-05-25T01:11:36.439Z,7.55
2023-05-25T01:14:04.282Z,7.13
2023-05-25T01:16:32.342Z,6.55
2023-05-25T01:19:03.915Z,6.55
2023-05-25T01:21:38.485Z,7.30
2023-05-25T01:24:18.106Z,6.90
2023-05-25T01:26:52.437Z,7.03
2023-05-25T01:29:21.569Z,7.35
2023-05-25T01:31:50.147Z,7.75
2023-05-25T01:34:17.679Z,8.00
2023-05-25T01:36:45.592Z,7.70
2023-05-25T01:39:13.945Z,8.07
2023-05-25T01:41:42.047Z,7.43
2023-05-25T01:44:10.497Z,7.88
2023-05-25T01:46:42.278Z,8.70
2023-05-25T01:49:13.274Z,9.25
2023-05-25T01:52:22.710Z,7.85
2023-05-25T01:55:18.572Z,7.15
2023-05-25T01:57:51.439Z,8.15
2023-05-25T02:00:21.648Z,8.07
2023-05-25T02:02:52.373Z,8.35
2023-05-25T02:05:21.602Z,9.35
2023-05-25T02:07:50.008Z,8.02
2023-05-25T02:10:18.463Z,8.07
2023-05-25T02:12:46.081Z,8.25
2023-05-25T02:15:14.287Z,8.43
2023-05-25T02:17:45.381Z,8.85
2023-05-25T02:20:14.022Z,8.75
2023-05-25T02:22:43.535Z,8.52
2023-05-25T02:25:11.708Z,7.30
2023-05-25T02:27:42.271Z,8.95
2023-05-25T02:30:10.300Z,8.85
2023-05-25T02:32:38.101Z,9.32
2023-05-25T02:35:05.975Z,9.27
2023-05-25T02:37:34.591Z,9.32
2023-05-25T02:40:04.434Z,8.80
2023-05-25T02:42:31.927Z,8.93
2023-05-25T02:44:59.751Z,8.70
2023-05-25T02:47:27.149Z,7.45
2023-05-25T02:49:54.991Z,7.03
2023-05-25T02:52:22.975Z,7.25
2023-05-25T02:54:50.718Z,6.72
2023-05-25T02:57:28.667Z,5.20
2023-05-25T02:59:56.313Z,6.38
2023-05-25T03:02:25.914Z,5.47
2023-05-25T03:04:54.130Z,5.35
2023-05-25T03:07:21.932Z,5.20
2023-05-25T03:09:50.115Z,5.13
2023-05-25T03:12:17.785Z,4.45
2023-05-25T03:14:45.066Z,4.72
2023-05-25T03:17:12.438Z,4.93
2023-05-25T03:19:40.104Z,5.10
2023-05-25T03:22:07.764Z,4.80
2023-05-25T03:24:35.772Z,4.65
2023-05-25T03:27:04.567Z,4.55
2023-05-25T03:29:32.111Z,4.28
2023-05-25T03:31:59.922Z,4.57
2023-05-25T03:34:30.156Z,4.80
2023-05-25T03:36:57.697Z,5.80
2023-05-25T03:39:25.756Z,5.45
2023-05-25T03:41:54.741Z,5.38
2023-05-25T03:44:22.214Z,5.97
2023-05-25T03:46:50.901Z,6.32
2023-05-25T03:49:18.851Z,5.93
2023-05-25T03:51:46.554Z,5.55
2023-05-25T03:54:14.262Z,6.28
2023-05-25T03:56:41.884Z,6.18
2023-05-25T03:59:09.333Z,6.75
2023-05-25T04:01:39.191Z,6.90
2023-05-25T04:04:07.981Z,6.38
2023-05-25T04:06:40.571Z,5.63
2023-05-25T04:09:08.668Z,6.03
2023-05-25T04:11:36.405Z,6.15
2023-05-25T04:14:04.192Z,6.03
2023-05-25T04:16:36.100Z,6.28
2023-05-25T04:19:07.440Z,5.50
2023-05-25T04:21:35.359Z,6.07
2023-05-25T04:24:04.595Z,5.60
2023-05-25T04:26:32.389Z,5.72
2023-05-25T04:29:02.827Z,5.50
2023-05-25T04:31:51.976Z,5.00
2023-05-25T04:34:38.028Z,4.78
2023-05-25T04:37:15.686Z,4.22
2023-05-25T04:39:43.637Z,4.18
2023-05-25T04:42:14.395Z,5.18
2023-05-25T04:44:42.003Z,4.88
2023-05-25T04:47:11.160Z,4.35
2023-05-25T04:49:39.208Z,4.43
2023-05-25T04:52:08.602Z,3.90
2023-05-25T04:54:36.987Z,4.72
2023-05-25T04:57:05.079Z,4.45
2023-05-25T04:59:32.961Z,4.85
2023-05-25T05:02:00.996Z,4.03
2023-05-25T05:04:28.772Z,4.18
2023-05-25T05:06:58.756Z,4.03
2023-05-25T05:09:28.979Z,3.80
2023-05-25T05:11:59.113Z,3.60
2023-05-25T05:14:26.994Z,3.00
2023-05-25T05:16:55.105Z,2.80
2023-05-25T05:19:23.369Z,3.00
2023-05-25T05:21:51.431Z,2.85
2023-05-25T05:24:20.497Z,2.42
2023-05-25T05:26:58.312Z,3.20
2023-05-25T05:29:37.986Z,2.88
2023-05-25T05:32:05.891Z,3.00
2023-05-25T05:34:34.292Z,2.80
2023-05-25T05:37:06.323Z,3.08
2023-05-25T05:39:34.210Z,2.45
2023-05-25T05:42:02.218Z,2.70
2023-05-25T05:44:31.569Z,3.00
2023-05-25T05:47:02.150Z,3.00
2023-05-25T05:49:31.874Z,2.80
2023-05-25T05:52:01.496Z,2.65
2023-05-25T05:54:29.367Z,2.53
2023-05-25T05:57:00.449Z,2.83
2023-05-25T05:59:28.860Z,2.78
2023-05-25T06:01:57.004Z,2.90
2023-05-25T06:04:29.318Z,2.40
2023-05-25T06:06:59.261Z,2.80
2023-05-25T06:09:27.446Z,2.97
2023-05-25T06:11:59.042Z,2.60
2023-05-25T06:14:28.770Z,2.75
2023-05-25T06:17:00.566Z,2.35
2023-05-25T06:19:28.582Z,2.03
2023-05-25T06:21:56.341Z,2.53
2023-05-25T06:24:24.019Z,2.70
2023-05-25T06:26:51.964Z,2.40
2023-05-25T06:29:21.382Z,2.20
2023-05-25T06:31:49.006Z,2.17
2023-05-25T06:34:17.655Z,2.15
2023-05-25T06:36:45.053Z,2.30
2023-05-25T06:39:13.329Z,2.20
2023-05-25T06:41:41.096Z,2.20
2023-05-25T06:44:08.986Z,2.75
2023-05-25T06:46:47.194Z,2.17
2023-05-25T06:49:16.308Z,2.30
2023-05-25T06:51:44.365Z,2.40
2023-05-25T06:54:14.213Z,1.90
2023-05-25T06:56:43.278Z,2.20
2023-05-25T06:59:10.598Z,1.83
2023-05-25T07:01:38.394Z,1.95
2023-05-25T07:04:06.148Z,2.20
2023-05-25T07:06:33.931Z,2.10
2023-05-25T07:09:01.760Z,2.40
2023-05-25T07:11:29.488Z,2.25
2023-05-25T07:13:56.897Z,1.70
2023-05-25T07:16:26.139Z,2.10
2023-05-25T07:18:53.839Z,1.83
2023-05-25T07:21:21.914Z,1.90
2023-05-25T07:23:50.008Z,2.13
2023-05-25T07:26:17.465Z,1.83
2023-05-25T07:28:45.175Z,2.05
2023-05-25T07:31:12.708Z,2.00
2023-05-25T07:33:40.125Z,2.20
2023-05-25T07:36:08.486Z,2.10
2023-05-25T07:38:36.094Z,1.63
2023-05-25T07:41:03.683Z,2.08
2023-05-25T07:43:31.939Z,2.00
2023-05-25T07:46:01.524Z,2.22
2023-05-25T07:48:29.313Z,2.10
2023-05-25T07:50:57.211Z,1.58
2023-05-25T07:53:25.291Z,2.15
2023-05-25T07:55:52.945Z,1.67
2023-05-25T07:58:20.133Z,1.73
2023-05-25T08:00:49.694Z,2.10
2023-05-25T08:03:18.098Z,1.50
2023-05-25T08:05:45.672Z,1.70
2023-05-25T08:08:14.549Z,1.98
2023-05-25T08:10:42.291Z,1.60
2023-05-25T08:13:09.605Z,1.67
2023-05-25T08:15:37.298Z,1.70
2023-05-25T08:18:05.143Z,1.80
2023-05-25T08:20:32.739Z,1.98
2023-05-25T08:23:00.171Z,1.92
2023-05-25T08:25:27.717Z,1.80
2023-05-25T08:27:55.529Z,1.88
2023-05-25T08:30:23.512Z,1.88
2023-05-25T08:32:51.205Z,1.92
2023-05-25T08:35:18.955Z,2.03
2023-05-25T08:37:47.245Z,2.00
2023-05-25T08:40:17.345Z,1.95
2023-05-25T08:42:46.263Z,2.03
2023-05-25T08:45:26.533Z,1.77
2023-05-25T08:48:04.852Z,2.20
2023-05-25T08:50:34.183Z,1.95
2023-05-25T08:53:05.464Z,1.80
2023-05-25T08:55:38.157Z,2.10
2023-05-25T08:58:21.805Z,2.40
2023-05-25T09:00:58.518Z,1.77
2023-05-25T09:03:27.145Z,2.05
2023-05-25T09:05:56.614Z,1.92
2023-05-25T09:08:25.439Z,2.28
2023-05-25T09:10:52.880Z,1.80
2023-05-25T09:13:22.869Z,1.90
2023-05-25T09:15:52.348Z,1.77
2023-05-25T09:18:20.375Z,1.77
2023-05-25T09:20:48.244Z,1.88
2023-05-25T09:23:16.017Z,1.70
2023-05-25T09:25:45.016Z,1.60
2023-05-25T09:30:42.558Z,1.40
2023-05-25T09:33:12.475Z,1.45
2023-05-25T09:35:41.251Z,1.58
2023-05-25T09:38:09.119Z,1.50
2023-05-25T09:40:38.695Z,1.25
2023-05-25T09:43:06.430Z,1.92
2023-05-25T09:45:35.099Z,1.40
2023-05-25T09:48:03.730Z,1.48
2023-05-25T09:50:31.132Z,1.88
2023-05-25T09:53:03.181Z,1.63
2023-05-25T09:55:40.476Z,1.77
2023-05-25T09:58:19.077Z,1.60
2023-05-25T10:00:46.840Z,1.70
2023-05-25T10:03:15.618Z,1.85
2023-05-25T10:05:43.212Z,1.70
2023-05-25T10:08:11.838Z,1.60
2023-05-25T10:10:41.579Z,1.50
2023-05-25T10:13:10.036Z,1.40
2023-05-25T10:15:41.428Z,1.50
2023-05-25T10:18:10.866Z,1.63
2023-05-25T10:20:39.783Z,1.60
2023-05-25T10:23:20.123Z,1.73
2023-05-25T10:25:51.392Z,1.95
2023-05-25T10:28:31.681Z,1.48
2023-05-25T10:31:00.134Z,1.60
2023-05-25T10:36:10.551Z,1.50
2023-05-25T10:38:40.927Z,1.73
2023-05-25T10:41:11.384Z,1.95
2023-05-25T10:43:40.618Z,1.80
2023-05-25T10:46:08.966Z,1.98
2023-05-25T10:48:37.963Z,1.80
2023-05-25T10:51:08.987Z,1.88
2023-05-25T10:53:38.075Z,1.80
2023-05-25T10:56:09.117Z,1.80
2023-05-25T10:58:41.152Z,1.42
2023-05-25T11:01:11.009Z,1.88
2023-05-25T11:03:45.055Z,1.70
2023-05-25T11:06:18.016Z,1.83
2023-05-25T11:08:52.433Z,2.10
2023-05-25T11:11:20.080Z,1.98
2023-05-25T11:13:49.592Z,1.60
2023-05-25T11:16:27.360Z,2.00
2023-05-25T11:18:59.723Z,1.77
2023-05-25T11:21:27.535Z,1.52
2023-05-25T11:23:55.120Z,1.73
2023-05-25T11:26:24.697Z,1.52
2023-05-25T11:28:53.336Z,1.67
2023-05-25T11:31:30.573Z,1.60
2023-05-25T11:34:03.025Z,1.75
2023-05-25T11:36:35.313Z,1.63
2023-05-25T11:39:16.901Z,1.40
2023-05-25T11:41:58.682Z,1.38
2023-05-25T11:44:37.258Z,1.80
2023-05-25T11:47:13.714Z,1.30
2023-05-25T11:49:47.456Z,1.80
2023-05-25T11:52:17.804Z,1.70
2023-05-25T11:54:46.174Z,2.00
2023-05-25T11:57:14.919Z,1.50
2023-05-25T11:59:49.747Z,1.75
2023-05-25T12:02:17.999Z,1.98
2023-05-25T12:05:00.198Z,1.70
2023-05-25T12:07:29.297Z,1.80
2023-05-25T12:10:07.358Z,2.05
2023-05-25T12:12:50.784Z,1.88
2023-05-25T12:15:27.337Z,1.92
2023-05-25T12:17:55.208Z,2.00
2023-05-25T12:20:23.123Z,2.20
2023-05-25T12:22:51.156Z,1.90
2023-05-25T12:25:24.929Z,1.90
2023-05-25T12:28:12.627Z,1.98
2023-05-25T12:30:40.337Z,1.92
2023-05-25T12:33:07.916Z,2.00
2023-05-25T12:35:49.589Z,1.98
2023-05-25T12:38:19.328Z,1.92
2023-05-25T12:40:47.010Z,1.70
2023-05-25T12:43:15.531Z,2.40
2023-05-25T12:45:43.845Z,1.90
2023-05-25T12:48:12.072Z,1.48
2023-05-25T12:50:56.752Z,2.30
2023-05-25T12:53:23.979Z,1.63
2023-05-25T12:56:02.148Z,1.80
2023-05-25T12:58:29.312Z,2.33
2023-05-25T13:00:57.061Z,1.85
2023-05-25T13:03:24.288Z,2.30
2023-05-25T13:05:52.114Z,1.73
2023-05-25T13:08:19.706Z,1.80
2023-05-25T13:10:51.828Z,1.88
2023-05-25T13:13:19.536Z,1.85
2023-05-25T13:15:46.779Z,2.25
2023-05-25T13:18:14.078Z,1.92
2023-05-25T13:20:42.239Z,1.60
2023-05-25T13:23:09.742Z,1.95
2023-05-25T13:25:37.598Z,1.98
2023-05-25T13:28:06.619Z,1.60
2023-05-25T13:30:34.205Z,1.92
2023-05-25T13:33:01.683Z,2.00
2023-05-25T13:35:42.156Z,2.30
2023-05-25T13:38:11.013Z,2.05
2023-05-25T13:40:38.425Z,2.05
2023-05-25T13:43:05.957Z,2.00
2023-05-25T13:45:34.139Z,2.03
2023-05-25T13:48:01.748Z,2.60
2023-05-25T13:50:29.353Z,2.00
2023-05-25T13:52:56.885Z,1.75
2023-05-25T13:55:24.698Z,2.03
2023-05-25T13:57:54.698Z,2.00
2023-05-25T14:00:22.395Z,2.00
2023-05-25T14:02:49.832Z,1.95
2023-05-25T14:05:18.739Z,2.10
2023-05-25T14:07:47.382Z,1.80
2023-05-25T14:22:13.913Z,1.80
2023-05-25T14:24:42.409Z,2.10
2023-05-25T14:27:10.335Z,2.80
2023-05-25T14:29:38.115Z,2.75
2023-05-25T14:32:05.968Z,3.38
2023-05-25T14:34:33.667Z,3.33
2023-05-25T14:37:01.392Z,3.25
2023-05-25T14:39:28.741Z,3.45
2023-05-25T14:41:56.526Z,2.95
2023-05-25T14:44:24.924Z,3.03
2023-05-25T14:46:52.227Z,3.25
2023-05-25T14:49:21.567Z,3.40
2023-05-25T14:51:48.999Z,3.33
2023-05-25T14:54:16.646Z,3.42
2023-05-25T14:56:47.932Z,3.10
2023-05-25T14:59:15.887Z,3.05
2023-05-25T15:01:43.613Z,3.25
2023-05-25T15:04:11.403Z,3.25
2023-05-25T15:06:40.495Z,3.30
2023-05-25T15:09:07.931Z,3.50
2023-05-25T15:11:35.206Z,2.88
2023-05-25T15:14:02.810Z,3.03
2023-05-25T15:16:30.356Z,3.00
2023-05-25T15:18:57.983Z,3.28
2023-05-25T15:21:25.960Z,3.30
2023-05-25T15:23:53.486Z,3.40
2023-05-25T15:26:21.835Z,3.20
2023-05-25T15:28:49.474Z,2.90
2023-05-25T15:31:17.211Z,2.83
2023-05-25T15:33:54.333Z,3.10
2023-05-25T15:36:25.831Z,3.15
2023-05-25T15:38:56.198Z,2.50
2023-05-25T15:41:23.825Z,2.67
2023-05-25T15:43:54.846Z,2.47
2023-05-25T15:46:22.464Z,2.70
2023-05-25T15:48:50.521Z,2.40
2023-05-25T15:51:18.256Z,2.40
2023-05-25T15:53:46.837Z,2.25
2023-05-25T15:56:14.549Z,2.63
2023-05-25T15:58:42.890Z,2.88
2023-05-25T16:01:12.414Z,2.72
2023-05-25T16:03:43.431Z,3.13
2023-05-25T16:06:11.913Z,2.92
2023-05-25T16:08:40.249Z,2.53
2023-05-25T16:11:08.017Z,2.67
2023-05-25T16:13:35.753Z,2.65
2023-05-25T16:16:03.416Z,3.03
2023-05-25T16:18:31.334Z,3.05
2023-05-25T16:20:59.119Z,2.50
2023-05-25T16:23:27.350Z,2.72
2023-05-25T16:25:55.609Z,2.60
2023-05-25T16:28:23.289Z,2.90
2023-05-25T16:30:51.107Z,3.10
2023-05-25T16:33:18.581Z,2.92
2023-05-25T16:35:46.736Z,3.30
2023-05-25T16:38:15.028Z,3.50
2023-05-25T16:40:42.721Z,2.90
2023-05-25T16:43:10.061Z,3.08
2023-05-25T16:45:37.608Z,3.50
2023-05-25T16:48:05.724Z,3.63
2023-05-25T16:50:33.274Z,6.15
2023-05-25T16:53:01.112Z,7.90
2023-05-25T16:55:28.409Z,7.85
2023-05-25T16:57:56.376Z,6.88
2023-05-25T17:00:23.910Z,4.70
2023-05-25T17:02:51.573Z,3.75
2023-05-25T17:05:19.667Z,3.70
2023-05-25T17:07:47.801Z,4.07
2023-05-25T17:10:15.953Z,3.95
2023-05-25T17:12:43.664Z,3.90
2023-05-25T17:15:14.163Z,3.88
2023-05-25T17:17:42.404Z,3.63
2023-05-25T17:20:11.202Z,3.60
2023-05-25T17:22:39.477Z,3.70
2023-05-25T17:25:09.057Z,3.55
2023-05-25T17:27:36.812Z,3.58
2023-05-25T17:30:05.302Z,5.13
2023-05-25T17:32:33.104Z,6.65
2023-05-25T17:35:00.540Z,7.25
2023-05-25T17:37:28.212Z,6.80
2023-05-25T17:39:56.177Z,6.90
2023-05-25T17:42:23.798Z,6.10
2023-05-25T17:44:51.389Z,5.90
2023-05-25T17:47:19.477Z,5.15
2023-05-25T17:49:46.965Z,5.13
2023-05-25T17:52:14.917Z,5.97
2023-05-25T17:54:42.757Z,6.05
2023-05-25T17:57:10.462Z,6.00
2023-05-25T17:59:38.022Z,6.60
2023-05-25T18:02:06.047Z,7.32
2023-05-25T18:04:33.660Z,6.85
2023-05-25T18:07:01.191Z,7.00
2023-05-25T18:09:29.352Z,8.02
2023-05-25T18:11:57.247Z,8.05
2023-05-25T18:14:24.759Z,7.57
2023-05-25T18:16:52.400Z,9.18
2023-05-25T18:19:20.910Z,9.93
2023-05-25T18:21:48.520Z,9.60
2023-05-25T18:24:16.079Z,8.27
2023-05-25T18:26:44.252Z,8.23
2023-05-25T18:29:11.805Z,9.40
2023-05-25T18:31:46.568Z,8.93
2023-05-25T18:34:13.811Z,9.48
2023-05-25T18:36:41.759Z,10.27
2023-05-25T18:39:09.264Z,9.52
2023-05-25T18:41:36.916Z,9.80
2023-05-25T18:44:04.324Z,9.30
2023-05-25T18:46:31.818Z,9.02
2023-05-25T18:48:59.121Z,8.25
2023-05-25T18:51:26.468Z,8.02
2023-05-25T18:53:55.080Z,7.72
2023-05-25T18:56:23.092Z,7.07
2023-05-25T18:58:52.430Z,7.18
2023-05-25T19:01:19.868Z,7.57
2023-05-25T19:03:47.260Z,7.53
2023-05-25T19:06:14.839Z,8.00
2023-05-25T19:08:42.200Z,7.90
2023-05-25T19:11:09.515Z,8.30
2023-05-25T19:13:36.740Z,7.90
2023-05-25T19:16:04.691Z,8.45
2023-05-25T19:18:32.331Z,8.90
2023-05-25T19:21:01.205Z,7.90
2023-05-25T19:23:28.632Z,8.85
2023-05-25T19:25:55.888Z,9.55
2023-05-25T19:28:23.298Z,9.00
2023-05-25T19:30:50.911Z,8.82
2023-05-25T19:33:18.453Z,8.77
2023-05-25T19:35:46.490Z,8.65
2023-05-25T19:38:14.291Z,9.55
2023-05-25T19:40:41.528Z,9.82
2023-05-25T19:43:09.133Z,10.45
2023-05-25T19:45:36.461Z,10.05
2023-05-25T19:48:04.685Z,9.60
2023-05-25T19:50:33.760Z,9.32
2023-05-25T19:53:01.429Z,10.27
2023-05-25T19:55:29.058Z,10.15
2023-05-25T19:57:56.635Z,9.77
2023-05-25T20:00:26.475Z,10.20
2023-05-25T20:02:54.988Z,11.18
2023-05-25T20:05:22.544Z,12.10
2023-05-25T20:07:52.361Z,12.13
2023-05-25T20:10:20.035Z,10.85
2023-05-25T20:12:47.470Z,12.27
2023-05-25T20:15:15.204Z,10.77
2023-05-25T20:17:42.543Z,10.63
2023-05-25T20:20:10.242Z,11.18
2023-05-25T20:22:37.755Z,11.52
2023-05-25T20:25:05.344Z,10.65
2023-05-25T20:27:32.785Z,11.20
2023-05-25T20:30:00.373Z,10.63
2023-05-25T20:32:27.729Z,10.55
2023-05-25T20:34:55.178Z,10.93
2023-05-25T20:37:22.581Z,10.55
2023-05-25T20:39:49.896Z,12.65
2023-05-25T20:42:17.876Z,12.05
2023-05-25T20:44:45.412Z,11.35
2023-05-25T20:47:12.699Z,10.35
2023-05-25T20:49:40.211Z,10.25
2023-05-25T20:52:07.906Z,10.23
2023-05-25T20:54:36.925Z,10.82
2023-05-25T20:57:04.573Z,11.25
2023-05-25T20:59:32.287Z,11.57
2023-05-25T21:01:59.862Z,10.90
2023-05-25T21:04:27.824Z,10.13
2023-05-25T21:06:56.166Z,9.73
2023-05-25T21:09:23.859Z,9.30
2023-05-25T21:11:51.687Z,8.10
2023-05-25T21:14:19.456Z,8.43
2023-05-25T21:16:46.899Z,7.97
2023-05-25T21:19:14.314Z,8.52
2023-05-25T21:21:42.035Z,8.02
2023-05-25T21:24:09.546Z,8.10
2023-05-25T21:26:37.303Z,8.02
2023-05-25T21:29:04.876Z,7.40
2023-05-25T21:31:32.514Z,7.65
2023-05-25T21:34:00.628Z,8.15
2023-05-25T21:36:30.946Z,7.80
2023-05-25T21:38:58.503Z,8.50
2023-05-25T21:41:27.685Z,7.93
2023-05-25T21:43:55.462Z,8.57
2023-05-25T21:46:22.888Z,8.15
2023-05-25T21:48:50.099Z,8.13
2023-05-25T21:51:17.764Z,8.18
2023-05-25T21:53:45.115Z,7.97
2023-05-25T21:56:12.631Z,8.00
2023-05-25T21:58:40.092Z,8.52
2023-05-25T22:01:07.349Z,9.68
2023-05-25T22:03:34.946Z,9.15
2023-05-25T22:06:02.556Z,8.93
2023-05-25T22:08:29.738Z,9.68
2023-05-25T22:10:57.599Z,9.65
2023-05-25T22:13:25.402Z,9.07
2023-05-25T22:15:53.076Z,9.30
2023-05-25T22:18:20.110Z,9.63
2023-05-25T22:20:47.715Z,8.88
2023-05-25T22:23:15.195Z,9.07
2023-05-25T22:25:42.450Z,8.77
2023-05-25T22:28:09.658Z,9.65
2023-05-25T22:30:37.012Z,8.40
2023-05-25T22:33:04.597Z,8.57
2023-05-25T22:35:31.845Z,9.27
2023-05-25T22:37:59.280Z,9.60
2023-05-25T22:40:26.944Z,9.73
2023-05-25T22:42:54.583Z,10.20
2023-05-25T22:45:22.378Z,9.43
2023-05-25T22:47:49.934Z,9.93
2023-05-25T22:50:17.528Z,9.75
2023-05-25T22:52:45.142Z,9.52
2023-05-25T22:55:12.788Z,9.52
2023-05-25T22:57:40.214Z,9.10
2023-05-25T23:00:08.809Z,9.35
2023-05-25T23:02:36.254Z,11.05
2023-05-25T23:05:03.722Z,9.27
2023-05-25T23:07:31.884Z,9.57
2023-05-25T23:09:59.349Z,9.50
2023-05-25T23:12:26.933Z,9.10
2023-05-25T23:14:56.735Z,9.88
2023-05-25T23:17:24.101Z,9.77
2023-05-25T23:19:53.734Z,10.15
2023-05-25T23:22:21.023Z,10.02
2023-05-25T23:24:48.557Z,9.32
2023-05-25T23:27:16.371Z,10.43
2023-05-25T23:29:44.006Z,9.55
2023-05-25T23:32:11.390Z,9.75
2023-05-25T23:34:38.767Z,8.80
2023-05-25T23:37:06.701Z,8.88
2023-05-25T23:39:34.173Z,9.77
2023-05-25T23:42:02.508Z,10.48
2023-05-25T23:44:29.822Z,9.25
2023-05-25T23:46:57.162Z,9.07
2023-05-25T23:49:24.615Z,8.85
2023-05-25T23:51:52.291Z,10.18
2023-05-25T23:54:20.103Z,9.27
2023-05-25T23:56:47.319Z,10.40
2023-05-25T23:59:15.445Z,10.38
